sensor_id;sensor_type;location;lat;lon;timestamp;pressure;altitude;pressure_sealevel;temperature;humidity
27613;BME280;15036;48.094;-1.690;2023-03-24T00:02:07;99750.66;;;15.94;63.09
27613;BME280;15036;48.094;-1.690;2023-03-24T00:04:33;99752.84;;;16.45;61.93
27613;BME280;15036;48.094;-1.690;2023-03-24T00:06:58;99763.75;;;16.09;62.88
27613;BME280;15036;48.094;-1.690;2023-03-24T00:09:26;99747.63;;;16.22;62.54
27613;BME280;15036;48.094;-1.690;2023-03-24T00:11:52;99753.56;;;16.63;61.36
27613;BME280;15036;48.094;-1.690;2023-03-24T00:14:18;99764.75;;;16.51;61.42
27613;BME280;15036;48.094;-1.690;2023-03-24T00:16:43;99745.16;;;16.21;61.91
27613;BME280;15036;48.094;-1.690;2023-03-24T00:19:09;99761.88;;;16.14;62.44
27613;BME280;15036;48.094;-1.690;2023-03-24T00:21:35;99765.06;;;16.28;62.00
27613;BME280;15036;48.094;-1.690;2023-03-24T00:24:01;99766.44;;;16.30;61.79
27613;BME280;15036;48.094;-1.690;2023-03-24T00:26:29;99769.25;;;16.09;62.48
27613;BME280;15036;48.094;-1.690;2023-03-24T00:28:54;99775.75;;;15.98;62.86
27613;BME280;15036;48.094;-1.690;2023-03-24T00:31:21;99785.91;;;15.97;62.81
27613;BME280;15036;48.094;-1.690;2023-03-24T00:33:48;99779.13;;;16.05;62.04
27613;BME280;15036;48.094;-1.690;2023-03-24T00:36:15;99779.66;;;15.80;63.30
27613;BME280;15036;48.094;-1.690;2023-03-24T00:38:41;99785.53;;;15.89;63.24
27613;BME280;15036;48.094;-1.690;2023-03-24T00:41:07;99784.63;;;16.05;62.58
27613;BME280;15036;48.094;-1.690;2023-03-24T00:43:32;99783.94;;;15.71;63.31
27613;BME280;15036;48.094;-1.690;2023-03-24T00:45:59;99788.56;;;15.66;63.86
27613;BME280;15036;48.094;-1.690;2023-03-24T00:48:26;99792.59;;;15.80;63.16
27613;BME280;15036;48.094;-1.690;2023-03-24T00:50:52;99785.41;;;16.00;62.75
27613;BME280;15036;48.094;-1.690;2023-03-24T00:53:17;99793.78;;;15.89;63.17
27613;BME280;15036;48.094;-1.690;2023-03-24T00:55:43;99807.06;;;15.70;63.40
27613;BME280;15036;48.094;-1.690;2023-03-24T00:58:14;99804.88;;;15.94;63.09
27613;BME280;15036;48.094;-1.690;2023-03-24T01:00:47;99826.13;;;15.77;63.66
27613;BME280;15036;48.094;-1.690;2023-03-24T01:03:13;99822.16;;;15.68;63.95
27613;BME280;15036;48.094;-1.690;2023-03-24T01:05:38;99821.13;;;15.74;63.53
27613;BME280;15036;48.094;-1.690;2023-03-24T01:08:05;99818.91;;;15.92;63.21
27613;BME280;15036;48.094;-1.690;2023-03-24T01:10:32;99817.09;;;15.59;63.97
27613;BME280;15036;48.094;-1.690;2023-03-24T01:12:58;99814.31;;;16.03;62.79
27613;BME280;15036;48.094;-1.690;2023-03-24T01:15:25;99812.25;;;15.88;63.09
27613;BME280;15036;48.094;-1.690;2023-03-24T01:17:52;99823.25;;;15.88;62.99
27613;BME280;15036;48.094;-1.690;2023-03-24T01:20:18;99818.31;;;15.69;63.62
27613;BME280;15036;48.094;-1.690;2023-03-24T01:22:44;99825.47;;;15.70;63.50
27613;BME280;15036;48.094;-1.690;2023-03-24T01:25:14;99821.97;;;15.74;63.05
27613;BME280;15036;48.094;-1.690;2023-03-24T01:27:41;99819.84;;;15.81;63.46
27613;BME280;15036;48.094;-1.690;2023-03-24T01:30:07;99814.41;;;15.86;63.04
27613;BME280;15036;48.094;-1.690;2023-03-24T01:32:33;99817.94;;;15.82;62.90
27613;BME280;15036;48.094;-1.690;2023-03-24T01:34:58;99818.78;;;15.82;63.02
27613;BME280;15036;48.094;-1.690;2023-03-24T01:37:23;99808.81;;;16.03;62.43
27613;BME280;15036;48.094;-1.690;2023-03-24T01:39:49;99806.78;;;15.72;63.03
27613;BME280;15036;48.094;-1.690;2023-03-24T01:42:19;99812.28;;;15.72;63.18
27613;BME280;15036;48.094;-1.690;2023-03-24T01:44:45;99810.38;;;15.72;63.29
27613;BME280;15036;48.094;-1.690;2023-03-24T01:47:11;99814.47;;;15.70;63.46
27613;BME280;15036;48.094;-1.690;2023-03-24T01:49:39;99822.09;;;15.84;63.09
27613;BME280;15036;48.094;-1.690;2023-03-24T01:52:07;99818.50;;;15.62;63.73
27613;BME280;15036;48.094;-1.690;2023-03-24T01:54:36;99822.97;;;15.68;63.41
27613;BME280;15036;48.094;-1.690;2023-03-24T01:57:05;99820.88;;;15.75;63.36
27613;BME280;15036;48.094;-1.690;2023-03-24T01:59:32;99828.53;;;15.73;63.57
27613;BME280;15036;48.094;-1.690;2023-03-24T02:01:59;99823.69;;;15.80;63.27
27613;BME280;15036;48.094;-1.690;2023-03-24T02:04:29;99824.03;;;15.45;64.15
27613;BME280;15036;48.094;-1.690;2023-03-24T02:06:54;99820.38;;;15.78;63.75
27613;BME280;15036;48.094;-1.690;2023-03-24T02:09:21;99821.66;;;15.71;63.67
27613;BME280;15036;48.094;-1.690;2023-03-24T02:11:46;99819.47;;;15.73;63.14
27613;BME280;15036;48.094;-1.690;2023-03-24T02:14:11;99822.91;;;15.85;63.24
27613;BME280;15036;48.094;-1.690;2023-03-24T02:26:44;99812.81;;;15.69;63.69
27613;BME280;15036;48.094;-1.690;2023-03-24T02:32:11;99821.66;;;15.71;63.58
27613;BME280;15036;48.094;-1.690;2023-03-24T02:43:01;99831.59;;;15.55;64.15
27613;BME280;15036;48.094;-1.690;2023-03-24T02:50:32;99827.34;;;15.86;63.10
27613;BME280;15036;48.094;-1.690;2023-03-24T02:55:31;99829.66;;;15.72;63.07
27613;BME280;15036;48.094;-1.690;2023-03-24T03:00:28;99825.56;;;15.75;62.92
27613;BME280;15036;48.094;-1.690;2023-03-24T03:03:00;99825.56;;;15.75;63.03
27613;BME280;15036;48.094;-1.690;2023-03-24T03:07:52;99824.50;;;15.81;62.70
27613;BME280;15036;48.094;-1.690;2023-03-24T03:10:23;99829.41;;;15.57;63.42
27613;BME280;15036;48.094;-1.690;2023-03-24T03:12:50;99816.50;;;15.57;63.40
27613;BME280;15036;48.094;-1.690;2023-03-24T03:15:18;99819.41;;;15.68;63.04
27613;BME280;15036;48.094;-1.690;2023-03-24T03:17:50;99827.44;;;15.52;63.66
27613;BME280;15036;48.094;-1.690;2023-03-24T03:20:19;99823.44;;;15.60;62.90
27613;BME280;15036;48.094;-1.690;2023-03-24T03:22:51;99823.22;;;15.45;63.93
27613;BME280;15036;48.094;-1.690;2023-03-24T03:25:23;99823.09;;;15.56;63.22
27613;BME280;15036;48.094;-1.690;2023-03-24T03:27:48;99821.25;;;15.84;62.76
27613;BME280;15036;48.094;-1.690;2023-03-24T03:30:21;99824.13;;;15.72;62.79
27613;BME280;15036;48.094;-1.690;2023-03-24T03:32:49;99812.16;;;16.05;61.82
27613;BME280;15036;48.094;-1.690;2023-03-24T03:35:19;99821.56;;;15.87;62.51
27613;BME280;15036;48.094;-1.690;2023-03-24T03:37:49;99829.06;;;15.92;62.32
27613;BME280;15036;48.094;-1.690;2023-03-24T03:40:19;99835.59;;;15.86;62.41
27613;BME280;15036;48.094;-1.690;2023-03-24T03:42:46;99833.91;;;15.85;62.97
27613;BME280;15036;48.094;-1.690;2023-03-24T03:45:11;99826.81;;;15.67;63.04
27613;BME280;15036;48.094;-1.690;2023-03-24T03:47:38;99831.69;;;15.43;63.87
27613;BME280;15036;48.094;-1.690;2023-03-24T03:50:03;99826.22;;;15.43;64.21
27613;BME280;15036;48.094;-1.690;2023-03-24T03:52:31;99841.94;;;15.31;64.43
27613;BME280;15036;48.094;-1.690;2023-03-24T03:54:56;99835.84;;;16.06;62.36
27613;BME280;15036;48.094;-1.690;2023-03-24T03:57:22;99846.47;;;15.76;62.65
27613;BME280;15036;48.094;-1.690;2023-03-24T03:59:48;99855.84;;;15.96;62.07
27613;BME280;15036;48.094;-1.690;2023-03-24T04:02:32;99851.84;;;15.87;62.29
27613;BME280;15036;48.094;-1.690;2023-03-24T04:12:59;99850.44;;;15.85;62.43
27613;BME280;15036;48.094;-1.690;2023-03-24T04:16:13;99848.59;;;15.69;63.04
27613;BME280;15036;48.094;-1.690;2023-03-24T04:18:33;99854.00;;;15.63;63.34
27613;BME280;15036;48.094;-1.690;2023-03-24T04:29:08;99865.44;;;15.94;62.05
27613;BME280;15036;48.094;-1.690;2023-03-24T04:34:26;99864.31;;;15.95;61.97
27613;BME280;15036;48.094;-1.690;2023-03-24T04:36:58;99873.41;;;15.74;63.18
27613;BME280;15036;48.094;-1.690;2023-03-24T04:39:27;99864.59;;;15.55;63.63
27613;BME280;15036;48.094;-1.690;2023-03-24T04:41:54;99865.03;;;15.85;62.98
27613;BME280;15036;48.094;-1.690;2023-03-24T04:44:21;99862.47;;;15.79;63.28
27613;BME280;15036;48.094;-1.690;2023-03-24T04:46:48;99871.53;;;15.41;64.21
27613;BME280;15036;48.094;-1.690;2023-03-24T04:49:14;99872.03;;;15.54;64.05
27613;BME280;15036;48.094;-1.690;2023-03-24T04:51:39;99870.72;;;15.79;62.82
27613;BME280;15036;48.094;-1.690;2023-03-24T04:54:05;99879.38;;;15.32;63.92
27613;BME280;15036;48.094;-1.690;2023-03-24T04:56:40;99880.28;;;15.38;63.77
27613;BME280;15036;48.094;-1.690;2023-03-24T04:59:07;99884.19;;;14.92;64.68
27613;BME280;15036;48.094;-1.690;2023-03-24T05:01:33;99891.22;;;15.33;63.77
27613;BME280;15036;48.094;-1.690;2023-03-24T05:04:01;99896.53;;;15.56;63.33
27613;BME280;15036;48.094;-1.690;2023-03-24T05:06:28;99889.09;;;15.40;63.41
27613;BME280;15036;48.094;-1.690;2023-03-24T05:08:53;99902.94;;;15.61;63.02
27613;BME280;15036;48.094;-1.690;2023-03-24T05:11:21;99893.84;;;15.61;62.43
27613;BME280;15036;48.094;-1.690;2023-03-24T05:13:46;99898.81;;;15.81;62.11
27613;BME280;15036;48.094;-1.690;2023-03-24T05:16:12;99900.50;;;15.82;61.87
27613;BME280;15036;48.094;-1.690;2023-03-24T05:18:38;99907.59;;;15.61;61.99
27613;BME280;15036;48.094;-1.690;2023-03-24T05:21:03;99905.53;;;15.51;62.51
27613;BME280;15036;48.094;-1.690;2023-03-24T05:23:28;99900.19;;;15.61;62.74
27613;BME280;15036;48.094;-1.690;2023-03-24T05:25:53;99911.47;;;15.98;61.35
27613;BME280;15036;48.094;-1.690;2023-03-24T05:28:19;99910.47;;;15.49;62.44
27613;BME280;15036;48.094;-1.690;2023-03-24T05:30:46;99916.13;;;15.59;62.34
27613;BME280;15036;48.094;-1.690;2023-03-24T05:33:11;99916.44;;;15.30;63.02
27613;BME280;15036;48.094;-1.690;2023-03-24T05:35:36;99920.31;;;15.45;62.42
27613;BME280;15036;48.094;-1.690;2023-03-24T05:38:01;99923.88;;;15.63;62.15
27613;BME280;15036;48.094;-1.690;2023-03-24T05:40:27;99919.50;;;15.83;61.17
27613;BME280;15036;48.094;-1.690;2023-03-24T05:42:52;99937.88;;;15.61;61.47
27613;BME280;15036;48.094;-1.690;2023-03-24T05:45:17;99932.78;;;15.70;61.48
27613;BME280;15036;48.094;-1.690;2023-03-24T05:47:42;99933.16;;;15.56;61.26
27613;BME280;15036;48.094;-1.690;2023-03-24T05:50:08;99934.53;;;16.14;60.22
27613;BME280;15036;48.094;-1.690;2023-03-24T05:52:34;99936.06;;;16.26;59.30
27613;BME280;15036;48.094;-1.690;2023-03-24T05:55:00;99946.16;;;16.21;59.67
27613;BME280;15036;48.094;-1.690;2023-03-24T05:57:25;99943.72;;;16.03;60.02
27613;BME280;15036;48.094;-1.690;2023-03-24T05:59:54;99946.13;;;16.16;59.88
27613;BME280;15036;48.094;-1.690;2023-03-24T06:02:19;99941.44;;;16.16;59.70
27613;BME280;15036;48.094;-1.690;2023-03-24T06:04:45;99945.53;;;15.92;60.08
27613;BME280;15036;48.094;-1.690;2023-03-24T06:07:13;99950.34;;;16.02;59.85
27613;BME280;15036;48.094;-1.690;2023-03-24T06:09:38;99943.56;;;15.93;60.12
27613;BME280;15036;48.094;-1.690;2023-03-24T06:12:06;99955.97;;;16.12;60.12
27613;BME280;15036;48.094;-1.690;2023-03-24T06:14:32;99952.91;;;16.30;59.50
27613;BME280;15036;48.094;-1.690;2023-03-24T06:16:57;99952.44;;;16.16;59.52
27613;BME280;15036;48.094;-1.690;2023-03-24T06:19:23;99957.78;;;16.23;59.58
27613;BME280;15036;48.094;-1.690;2023-03-24T06:21:49;99958.28;;;16.20;59.57
27613;BME280;15036;48.094;-1.690;2023-03-24T06:24:16;99962.28;;;16.12;59.96
27613;BME280;15036;48.094;-1.690;2023-03-24T06:26:41;99965.56;;;16.09;59.84
27613;BME280;15036;48.094;-1.690;2023-03-24T06:29:08;99972.19;;;15.92;60.36
27613;BME280;15036;48.094;-1.690;2023-03-24T06:31:34;99974.63;;;15.88;60.79
27613;BME280;15036;48.094;-1.690;2023-03-24T06:34:01;99972.34;;;16.02;59.87
27613;BME280;15036;48.094;-1.690;2023-03-24T06:36:26;99978.78;;;15.91;60.25
27613;BME280;15036;48.094;-1.690;2023-03-24T06:38:52;99979.78;;;16.01;60.33
27613;BME280;15036;48.094;-1.690;2023-03-24T06:41:17;99987.06;;;16.12;59.71
27613;BME280;15036;48.094;-1.690;2023-03-24T06:43:43;99985.00;;;16.03;60.34
27613;BME280;15036;48.094;-1.690;2023-03-24T06:46:08;99991.88;;;16.00;60.56
27613;BME280;15036;48.094;-1.690;2023-03-24T06:48:34;99993.25;;;16.58;59.06
27613;BME280;15036;48.094;-1.690;2023-03-24T06:50:59;99994.81;;;16.32;59.85
27613;BME280;15036;48.094;-1.690;2023-03-24T06:53:25;99996.19;;;16.13;59.99
27613;BME280;15036;48.094;-1.690;2023-03-24T06:55:52;100002.44;;;16.46;59.36
27613;BME280;15036;48.094;-1.690;2023-03-24T06:58:17;100013.19;;;16.48;59.53
27613;BME280;15036;48.094;-1.690;2023-03-24T07:00:43;99998.97;;;16.34;59.63
27613;BME280;15036;48.094;-1.690;2023-03-24T07:03:08;100001.75;;;16.56;59.42
27613;BME280;15036;48.094;-1.690;2023-03-24T07:05:40;100005.34;;;16.57;59.38
27613;BME280;15036;48.094;-1.690;2023-03-24T07:08:07;100008.09;;;16.57;59.54
27613;BME280;15036;48.094;-1.690;2023-03-24T07:10:33;100004.31;;;16.84;58.83
27613;BME280;15036;48.094;-1.690;2023-03-24T07:12:59;100001.97;;;16.71;59.00
27613;BME280;15036;48.094;-1.690;2023-03-24T07:15:27;100014.47;;;16.57;59.89
27613;BME280;15036;48.094;-1.690;2023-03-24T07:17:52;100025.59;;;16.89;59.08
27613;BME280;15036;48.094;-1.690;2023-03-24T07:20:17;100025.03;;;16.65;59.29
27613;BME280;15036;48.094;-1.690;2023-03-24T07:22:44;100033.84;;;16.45;60.16
27613;BME280;15036;48.094;-1.690;2023-03-24T07:25:09;100023.25;;;16.37;60.64
27613;BME280;15036;48.094;-1.690;2023-03-24T07:27:34;100038.00;;;16.10;61.25
27613;BME280;15036;48.094;-1.690;2023-03-24T07:30:02;100028.72;;;16.54;60.53
27613;BME280;15036;48.094;-1.690;2023-03-24T07:32:30;100032.16;;;16.44;60.25
27613;BME280;15036;48.094;-1.690;2023-03-24T07:34:58;100036.03;;;16.27;60.08
27613;BME280;15036;48.094;-1.690;2023-03-24T07:37:24;100034.13;;;16.27;60.26
27613;BME280;15036;48.094;-1.690;2023-03-24T07:39:49;100051.72;;;16.26;60.13
27613;BME280;15036;48.094;-1.690;2023-03-24T07:42:14;100042.22;;;16.34;60.31
27613;BME280;15036;48.094;-1.690;2023-03-24T07:44:40;100044.31;;;16.27;60.18
27613;BME280;15036;48.094;-1.690;2023-03-24T07:47:05;100052.28;;;16.83;59.52
27613;BME280;15036;48.094;-1.690;2023-03-24T07:49:31;100051.19;;;16.46;59.50
27613;BME280;15036;48.094;-1.690;2023-03-24T07:51:56;100054.19;;;16.44;59.60
27613;BME280;15036;48.094;-1.690;2023-03-24T07:54:23;100064.63;;;17.02;58.18
27613;BME280;15036;48.094;-1.690;2023-03-24T07:56:48;100053.31;;;16.77;58.45
27613;BME280;15036;48.094;-1.690;2023-03-24T07:59:13;100057.94;;;16.72;58.45
27613;BME280;15036;48.094;-1.690;2023-03-24T08:01:39;100054.91;;;16.52;58.76
27613;BME280;15036;48.094;-1.690;2023-03-24T08:04:04;100071.16;;;16.53;58.81
27613;BME280;15036;48.094;-1.690;2023-03-24T08:06:30;100063.03;;;16.63;58.32
27613;BME280;15036;48.094;-1.690;2023-03-24T08:08:56;100059.44;;;16.46;57.95
27613;BME280;15036;48.094;-1.690;2023-03-24T12:50:03;100158.06;;;16.11;69.69
27613;BME280;15036;48.094;-1.690;2023-03-24T12:52:56;100163.00;;;16.25;67.98
27613;BME280;15036;48.094;-1.690;2023-03-24T12:55:34;100160.16;;;16.92;66.62
27613;BME280;15036;48.094;-1.690;2023-03-24T12:58:26;100171.88;;;16.99;65.43
27613;BME280;15036;48.094;-1.690;2023-03-24T13:01:04;100161.63;;;17.86;63.73
27613;BME280;15036;48.094;-1.690;2023-03-24T13:03:52;100154.00;;;17.98;60.06
27613;BME280;15036;48.094;-1.690;2023-03-24T13:06:27;100153.16;;;17.97;59.45
27613;BME280;15036;48.094;-1.690;2023-03-24T13:11:40;100138.34;;;18.82;53.10
27613;BME280;15036;48.094;-1.690;2023-03-24T13:14:12;100160.41;;;18.72;51.73
27613;BME280;15036;48.094;-1.690;2023-03-24T13:16:41;100120.69;;;18.88;52.12
27613;BME280;15036;48.094;-1.690;2023-03-24T13:19:18;100130.09;;;19.39;48.63
27613;BME280;15036;48.094;-1.690;2023-03-24T13:21:46;100133.00;;;19.17;48.59
27613;BME280;15036;48.094;-1.690;2023-03-24T13:24:13;100123.41;;;19.35;48.72
27613;BME280;15036;48.094;-1.690;2023-03-24T13:26:51;100142.81;;;19.40;48.57
27613;BME280;15036;48.094;-1.690;2023-03-24T13:32:16;100137.66;;;20.64;46.82
27613;BME280;15036;48.094;-1.690;2023-03-24T13:34:55;100142.88;;;19.65;47.17
27613;BME280;15036;48.094;-1.690;2023-03-24T13:37:38;100125.75;;;20.03;46.08
27613;BME280;15036;48.094;-1.690;2023-03-24T13:40:09;100133.44;;;19.56;47.29
27613;BME280;15036;48.094;-1.690;2023-03-24T13:42:42;100135.06;;;19.42;47.76
27613;BME280;15036;48.094;-1.690;2023-03-24T13:47:49;100196.28;;;17.77;57.26
27613;BME280;15036;48.094;-1.690;2023-03-24T13:50:15;100169.63;;;15.51;62.76
27613;BME280;15036;48.094;-1.690;2023-03-24T13:52:47;100170.34;;;14.96;66.37
27613;BME280;15036;48.094;-1.690;2023-03-24T13:55:21;100178.00;;;15.05;67.43
27613;BME280;15036;48.094;-1.690;2023-03-24T13:58:13;100171.22;;;14.50;69.20
27613;BME280;15036;48.094;-1.690;2023-03-24T14:03:41;100160.63;;;15.16;68.27
27613;BME280;15036;48.094;-1.690;2023-03-24T14:06:08;100172.50;;;14.94;68.71
27613;BME280;15036;48.094;-1.690;2023-03-24T14:19:44;100214.63;;;13.47;64.99
27613;BME280;15036;48.094;-1.690;2023-03-24T14:22:34;100205.19;;;13.43;65.12
27613;BME280;15036;48.094;-1.690;2023-03-24T14:25:30;100190.16;;;13.75;65.39
27613;BME280;15036;48.094;-1.690;2023-03-24T14:28:16;100186.06;;;14.49;66.05
27613;BME280;15036;48.094;-1.690;2023-03-24T14:36:30;100210.63;;;14.90;63.20
27613;BME280;15036;48.094;-1.690;2023-03-24T14:39:29;100258.44;;;14.77;66.04
27613;BME280;15036;48.094;-1.690;2023-03-24T14:41:56;100304.50;;;13.45;66.54
27613;BME280;15036;48.094;-1.690;2023-03-24T14:47:08;100279.59;;;13.29;67.02
27613;BME280;15036;48.094;-1.690;2023-03-24T14:49:41;100278.81;;;12.79;67.16
27613;BME280;15036;48.094;-1.690;2023-03-24T14:52:31;100246.69;;;12.68;68.13
27613;BME280;15036;48.094;-1.690;2023-03-24T14:55:05;100238.44;;;12.50;67.58
27613;BME280;15036;48.094;-1.690;2023-03-24T14:57:38;100227.69;;;12.73;68.24
27613;BME280;15036;48.094;-1.690;2023-03-24T15:00:27;100258.16;;;12.58;68.87
27613;BME280;15036;48.094;-1.690;2023-03-24T15:05:40;100213.97;;;12.55;68.92
27613;BME280;15036;48.094;-1.690;2023-03-24T15:08:21;100229.59;;;12.90;68.76
27613;BME280;15036;48.094;-1.690;2023-03-24T15:11:14;100217.56;;;12.91;67.57
27613;BME280;15036;48.094;-1.690;2023-03-24T15:13:48;100205.66;;;13.22;65.70
27613;BME280;15036;48.094;-1.690;2023-03-24T15:16:23;100207.22;;;13.48;65.94
27613;BME280;15036;48.094;-1.690;2023-03-24T15:21:22;100209.28;;;13.52;65.35
27613;BME280;15036;48.094;-1.690;2023-03-24T15:23:49;100202.88;;;14.64;64.28
27613;BME280;15036;48.094;-1.690;2023-03-24T15:26:15;100209.31;;;15.04;61.79
27613;BME280;15036;48.094;-1.690;2023-03-24T15:28:40;100198.22;;;14.76;62.56
27613;BME280;15036;48.094;-1.690;2023-03-24T15:31:06;100216.00;;;14.50;63.16
27613;BME280;15036;48.094;-1.690;2023-03-24T15:33:41;100218.94;;;14.26;63.27
27613;BME280;15036;48.094;-1.690;2023-03-24T15:36:15;100223.06;;;14.93;63.10
27613;BME280;15036;48.094;-1.690;2023-03-24T15:38:47;100213.16;;;15.03;63.62
27613;BME280;15036;48.094;-1.690;2023-03-24T15:41:17;100222.00;;;15.85;62.31
27613;BME280;15036;48.094;-1.690;2023-03-24T15:43:45;100210.16;;;16.29;61.19
27613;BME280;15036;48.094;-1.690;2023-03-24T15:46:43;100217.19;;;15.63;61.90
27613;BME280;15036;48.094;-1.690;2023-03-24T15:49:22;100225.94;;;15.60;61.78
27613;BME280;15036;48.094;-1.690;2023-03-24T15:51:51;100231.56;;;15.94;62.90
27613;BME280;15036;48.094;-1.690;2023-03-24T15:57:15;100220.06;;;15.69;63.42
27613;BME280;15036;48.094;-1.690;2023-03-24T15:59:50;100246.63;;;15.63;63.37
27613;BME280;15036;48.094;-1.690;2023-03-24T16:02:44;100224.00;;;14.98;64.50
27613;BME280;15036;48.094;-1.690;2023-03-24T16:05:22;100240.94;;;15.81;62.98
27613;BME280;15036;48.094;-1.690;2023-03-24T16:07:56;100235.47;;;15.70;63.02
27613;BME280;15036;48.094;-1.690;2023-03-24T16:10:27;100244.41;;;15.48;62.72
27613;BME280;15036;48.094;-1.690;2023-03-24T16:12:56;100244.44;;;15.14;62.91
27613;BME280;15036;48.094;-1.690;2023-03-24T16:15:22;100244.88;;;15.34;61.58
27613;BME280;15036;48.094;-1.690;2023-03-24T16:17:47;100231.00;;;15.40;59.94
27613;BME280;15036;48.094;-1.690;2023-03-24T16:20:18;100232.31;;;15.38;59.60
27613;BME280;15036;48.094;-1.690;2023-03-24T16:22:44;100222.13;;;15.90;58.68
27613;BME280;15036;48.094;-1.690;2023-03-24T16:25:11;100222.28;;;16.28;57.58
27613;BME280;15036;48.094;-1.690;2023-03-24T16:27:37;100237.38;;;15.69;58.86
27613;BME280;15036;48.094;-1.690;2023-03-24T16:30:16;100236.91;;;15.72;58.72
27613;BME280;15036;48.094;-1.690;2023-03-24T16:32:43;100242.97;;;15.46;60.58
27613;BME280;15036;48.094;-1.690;2023-03-24T16:35:09;100236.56;;;15.06;61.89
27613;BME280;15036;48.094;-1.690;2023-03-24T16:37:35;100238.34;;;15.63;61.63
27613;BME280;15036;48.094;-1.690;2023-03-24T16:40:00;100261.28;;;15.29;62.80
27613;BME280;15036;48.094;-1.690;2023-03-24T16:42:25;100255.41;;;15.37;63.74
27613;BME280;15036;48.094;-1.690;2023-03-24T16:44:52;100259.25;;;14.55;64.55
27613;BME280;15036;48.094;-1.690;2023-03-24T16:47:17;100281.00;;;14.56;66.04
27613;BME280;15036;48.094;-1.690;2023-03-24T16:49:43;100275.09;;;14.00;66.56
27613;BME280;15036;48.094;-1.690;2023-03-24T16:52:11;100289.59;;;13.89;67.03
27613;BME280;15036;48.094;-1.690;2023-03-24T16:54:37;100319.91;;;14.12;67.94
27613;BME280;15036;48.094;-1.690;2023-03-24T16:57:02;100312.06;;;14.57;66.27
27613;BME280;15036;48.094;-1.690;2023-03-24T16:59:27;100326.97;;;14.20;66.21
27613;BME280;15036;48.094;-1.690;2023-03-24T17:01:53;100326.19;;;13.65;66.18
27613;BME280;15036;48.094;-1.690;2023-03-24T17:04:20;100298.31;;;13.32;66.19
27613;BME280;15036;48.094;-1.690;2023-03-24T17:06:49;100320.97;;;12.78;66.19
27613;BME280;15036;48.094;-1.690;2023-03-24T17:09:17;100329.28;;;13.14;64.80
27613;BME280;15036;48.094;-1.690;2023-03-24T17:11:48;100326.13;;;13.17;67.04
27613;BME280;15036;48.094;-1.690;2023-03-24T17:14:15;100329.91;;;13.16;67.26
27613;BME280;15036;48.094;-1.690;2023-03-24T17:16:42;100305.97;;;12.56;68.31
27613;BME280;15036;48.094;-1.690;2023-03-24T17:19:13;100267.63;;;13.05;67.36
27613;BME280;15036;48.094;-1.690;2023-03-24T17:21:43;100288.69;;;12.80;66.44
27613;BME280;15036;48.094;-1.690;2023-03-24T17:24:12;100265.78;;;12.99;66.00
27613;BME280;15036;48.094;-1.690;2023-03-24T17:26:39;100277.75;;;12.80;65.79
27613;BME280;15036;48.094;-1.690;2023-03-24T17:29:05;100278.69;;;13.35;64.84
27613;BME280;15036;48.094;-1.690;2023-03-24T17:31:31;100289.63;;;13.53;63.37
27613;BME280;15036;48.094;-1.690;2023-03-24T17:33:56;100287.00;;;13.46;62.70
27613;BME280;15036;48.094;-1.690;2023-03-24T17:36:23;100304.97;;;14.08;61.12
27613;BME280;15036;48.094;-1.690;2023-03-24T17:38:49;100289.50;;;14.66;59.09
27613;BME280;15036;48.094;-1.690;2023-03-24T17:41:14;100291.03;;;14.74;58.28
27613;BME280;15036;48.094;-1.690;2023-03-24T17:43:40;100285.53;;;14.51;57.95
27613;BME280;15036;48.094;-1.690;2023-03-24T17:46:06;100294.34;;;14.41;58.72
27613;BME280;15036;48.094;-1.690;2023-03-24T17:48:32;100285.25;;;14.29;58.22
27613;BME280;15036;48.094;-1.690;2023-03-24T17:50:57;100283.88;;;14.73;57.62
27613;BME280;15036;48.094;-1.690;2023-03-24T17:53:23;100279.34;;;14.78;57.49
27613;BME280;15036;48.094;-1.690;2023-03-24T17:55:54;100277.91;;;14.88;56.44
27613;BME280;15036;48.094;-1.690;2023-03-24T17:58:20;100281.03;;;14.80;57.06
27613;BME280;15036;48.094;-1.690;2023-03-24T18:00:46;100280.91;;;14.98;56.42
27613;BME280;15036;48.094;-1.690;2023-03-24T18:03:12;100292.22;;;15.36;55.98
27613;BME280;15036;48.094;-1.690;2023-03-24T18:05:37;100281.50;;;14.76;56.84
27613;BME280;15036;48.094;-1.690;2023-03-24T18:08:07;100297.03;;;15.17;55.97
27613;BME280;15036;48.094;-1.690;2023-03-24T18:10:33;100292.22;;;15.36;55.79
27613;BME280;15036;48.094;-1.690;2023-03-24T18:13:03;100317.19;;;14.65;56.74
27613;BME280;15036;48.094;-1.690;2023-03-24T18:15:28;100320.50;;;14.44;56.74
27613;BME280;15036;48.094;-1.690;2023-03-24T18:17:55;100309.47;;;14.32;57.13
27613;BME280;15036;48.094;-1.690;2023-03-24T18:20:20;100323.50;;;14.54;56.97
27613;BME280;15036;48.094;-1.690;2023-03-24T18:22:46;100314.22;;;14.78;56.66
27613;BME280;15036;48.094;-1.690;2023-03-24T18:25:12;100325.03;;;14.50;57.43
27613;BME280;15036;48.094;-1.690;2023-03-24T18:27:38;100321.00;;;14.52;57.03
27613;BME280;15036;48.094;-1.690;2023-03-24T18:30:06;100340.13;;;14.59;56.95
27613;BME280;15036;48.094;-1.690;2023-03-24T18:32:32;100332.78;;;14.41;57.16
27613;BME280;15036;48.094;-1.690;2023-03-24T18:34:58;100342.84;;;14.47;57.13
27613;BME280;15036;48.094;-1.690;2023-03-24T18:37:26;100353.31;;;14.39;57.69
27613;BME280;15036;48.094;-1.690;2023-03-24T18:39:51;100348.69;;;14.51;56.94
27613;BME280;15036;48.094;-1.690;2023-03-24T18:42:16;100359.50;;;14.34;57.03
27613;BME280;15036;48.094;-1.690;2023-03-24T18:44:42;100346.06;;;14.26;57.94
27613;BME280;15036;48.094;-1.690;2023-03-24T18:47:09;100362.34;;;14.10;58.37
27613;BME280;15036;48.094;-1.690;2023-03-24T18:49:36;100367.94;;;13.67;59.39
27613;BME280;15036;48.094;-1.690;2023-03-24T18:52:01;100370.31;;;14.00;58.62
27613;BME280;15036;48.094;-1.690;2023-03-24T18:54:27;100364.06;;;14.40;57.95
27613;BME280;15036;48.094;-1.690;2023-03-24T18:56:52;100366.91;;;14.75;57.16
27613;BME280;15036;48.094;-1.690;2023-03-24T18:59:18;100359.44;;;14.05;58.48
27613;BME280;15036;48.094;-1.690;2023-03-24T19:01:43;100366.75;;;14.11;58.78
27613;BME280;15036;48.094;-1.690;2023-03-24T19:04:11;100367.00;;;14.57;57.77